Time;durP1;ratioP1;P1;durP2;ratioP2;P2;SDS_P1;SDS_P2;PMS_P1;PMS_P2;Temp;Humidity;BMP_temperature;BMP_pressure;BME280_temperature;BME280_humidity;BME280_pressure;Samples;Min_cycle;Max_cycle;Signal;HPM_P1;HPM_P2
2023/03/15 00:00:53;;;;;;;18.58;2.45;;;;;;;;;;6133841;23;20002;-73
2023/03/15 00:03:19;;;;;;;20.63;2.55;;;;;;;;;;6132966;23;20053;-74
2023/03/15 00:05:46;;;;;;;14.63;2.90;;;;;;;;;;6133861;23;20017;-74
2023/03/15 00:08:12;;;;;;;20.80;2.97;;;;;;;;;;6134031;23;20002;-74
2023/03/15 00:10:41;;;;;;;18.65;2.42;;;;;;;;;;6133835;23;20193;-74
2023/03/15 00:13:07;;;;;;;21.90;3.20;;;;;;;;;;6133556;23;20002;-73
2023/03/15 00:15:32;;;;;;;15.35;2.45;;;;;;;;;;6133941;23;19998;-75
2023/03/15 00:17:58;;;;;;;16.15;2.40;;;;;;;;;;6133904;23;20009;-76
2023/03/15 00:20:23;;;;;;;15.68;2.30;;;;;;;;;;6132646;23;20002;-75
2023/03/15 00:22:49;;;;;;;18.63;2.40;;;;;;;;;;6133642;23;20036;-74
2023/03/15 00:25:14;;;;;;;15.52;2.80;;;;;;;;;;6133677;23;20053;-75
2023/03/15 00:27:40;;;;;;;18.25;2.65;;;;;;;;;;6133668;23;20057;-77
2023/03/15 00:30:05;;;;;;;20.50;2.28;;;;;;;;;;6133625;23;20233;-75
2023/03/15 00:32:31;;;;;;;18.90;2.80;;;;;;;;;;6133881;23;20013;-75
2023/03/15 00:34:56;;;;;;;18.83;2.42;;;;;;;;;;6133806;23;20062;-74
2023/03/15 00:37:24;;;;;;;21.17;2.80;;;;;;;;;;6133995;23;19998;-75
2023/03/15 00:39:51;;;;;;;19.17;2.75;;;;;;;;;;6108221;23;20024;-75
2023/03/15 00:42:16;;;;;;;20.60;2.50;;;;;;;;;;6133001;23;20006;-76
2023/03/15 00:44:42;;;;;;;19.10;2.38;;;;;;;;;;6133799;23;20021;-76
2023/03/15 00:47:12;;;;;;;20.30;2.63;;;;;;;;;;6134337;23;20004;-76
2023/03/15 00:49:39;;;;;;;23.30;2.90;;;;;;;;;;6133621;23;20041;-77
2023/03/15 00:52:04;;;;;;;21.10;3.30;;;;;;;;;;6132792;23;20233;-74
2023/03/15 00:54:32;;;;;;;19.02;2.53;;;;;;;;;;6132835;23;20006;-74
2023/03/15 00:56:58;;;;;;;19.33;2.50;;;;;;;;;;6132155;23;19998;-73
2023/03/15 00:59:24;;;;;;;25.30;2.78;;;;;;;;;;6132220;23;20014;-76
2023/03/15 01:01:49;;;;;;;12.98;2.08;;;;;;;;;;6133229;23;20045;-76
2023/03/15 01:04:15;;;;;;;21.80;2.50;;;;;;;;;;6133070;23;20300;-77
2023/03/15 01:06:41;;;;;;;20.15;2.38;;;;;;;;;;6131857;23;20000;-77
2023/03/15 01:09:09;;;;;;;24.42;2.70;;;;;;;;;;6133072;23;20049;-77
2023/03/15 01:11:35;;;;;;;15.70;2.35;;;;;;;;;;6132725;23;20293;-74
2023/03/15 01:14:03;;;;;;;16.05;2.30;;;;;;;;;;6133836;23;20009;-76
2023/03/15 01:16:29;;;;;;;23.90;2.30;;;;;;;;;;6134214;23;20193;-76
2023/03/15 01:18:55;;;;;;;15.23;2.00;;;;;;;;;;6134727;23;20004;-77
2023/03/15 01:21:22;;;;;;;18.20;2.20;;;;;;;;;;6134953;23;20025;-76
2023/03/15 01:23:48;;;;;;;17.17;2.38;;;;;;;;;;6135019;23;20001;-76
2023/03/15 01:26:15;;;;;;;18.95;2.58;;;;;;;;;;6134815;23;20218;-76
2023/03/15 01:28:41;;;;;;;17.73;2.10;;;;;;;;;;6135373;23;20005;-75
2023/03/15 01:31:14;;;;;;;17.48;3.10;;;;;;;;;;6135058;23;19998;-77
2023/03/15 01:33:40;;;;;;;13.85;2.10;;;;;;;;;;6135231;23;20198;-76
2023/03/15 01:36:06;;;;;;;15.80;2.03;;;;;;;;;;6134508;23;20305;-77
2023/03/15 01:38:32;;;;;;;15.70;2.30;;;;;;;;;;6135261;23;20009;-74
2023/03/15 01:40:58;;;;;;;17.77;2.13;;;;;;;;;;6135129;23;19998;-77
2023/03/15 01:43:26;;;;;;;18.92;2.58;;;;;;;;;;6135120;23;20095;-76
2023/03/15 01:46:12;;;;;;;16.00;2.10;;;;;;;;;;6109308;23;19998;-77
2023/03/15 01:48:38;;;;;;;17.85;2.70;;;;;;;;;;6135285;23;20010;-76
2023/03/15 01:51:15;;;;;;;12.48;1.77;;;;;;;;;;6109161;23;20013;-76
2023/03/15 01:53:47;;;;;;;13.00;2.10;;;;;;;;;;6135102;23;20323;-77
2023/03/15 01:56:13;;;;;;;18.00;1.98;;;;;;;;;;6134996;23;19998;-76
2023/03/15 01:58:42;;;;;;;17.88;2.50;;;;;;;;;;6134963;23;20013;-76
2023/03/15 02:01:08;;;;;;;14.88;1.80;;;;;;;;;;6134941;23;20001;-74
2023/03/15 02:03:45;;;;;;;16.30;2.15;;;;;;;;;;6135012;23;19998;-77
2023/03/15 02:06:16;;;;;;;21.52;2.78;;;;;;;;;;6135053;23;20001;-76
2023/03/15 02:08:49;;;;;;;17.85;2.67;;;;;;;;;;6108256;23;20006;-76
2023/03/15 02:11:17;;;;;;;14.68;1.90;;;;;;;;;;6134332;23;20018;-76
2023/03/15 02:13:44;;;;;;;16.10;2.17;;;;;;;;;;6133624;23;20002;-76
2023/03/15 02:16:09;;;;;;;15.50;2.03;;;;;;;;;;6134347;23;20289;-74
2023/03/15 02:18:35;;;;;;;14.27;1.80;;;;;;;;;;6133470;23;20041;-76
2023/03/15 02:21:25;;;;;;;19.35;2.30;;;;;;;;;;6134701;23;20013;-76
2023/03/15 02:24:09;;;;;;;21.95;2.10;;;;;;;;;;6089499;23;20002;-76
2023/03/15 02:26:49;;;;;;;15.88;2.00;;;;;;;;;;6133435;23;20009;-76
2023/03/15 02:29:14;;;;;;;16.98;2.10;;;;;;;;;;6133196;23;20303;-75
2023/03/15 02:31:40;;;;;;;14.55;2.20;;;;;;;;;;6134607;23;20070;-74
2023/03/15 02:34:06;;;;;;;16.50;2.35;;;;;;;;;;6134745;23;20002;-75
2023/03/15 02:36:33;;;;;;;12.35;1.98;;;;;;;;;;6134753;23;20006;-75
2023/03/15 02:38:59;;;;;;;14.65;2.35;;;;;;;;;;6134441;23;20001;-75
2023/03/15 02:41:37;;;;;;;11.48;1.63;;;;;;;;;;6133863;23;20002;-75
2023/03/15 02:44:20;;;;;;;20.55;2.30;;;;;;;;;;6134637;23;20008;-76
2023/03/15 02:46:48;;;;;;;13.27;1.63;;;;;;;;;;6134437;23;20073;-75
2023/03/15 02:49:15;;;;;;;16.40;2.03;;;;;;;;;;6134599;23;19998;-74
2023/03/15 02:51:41;;;;;;;10.93;1.80;;;;;;;;;;6134551;23;20009;-75
2023/03/15 02:54:07;;;;;;;16.25;1.95;;;;;;;;;;6134553;23;19994;-75
2023/03/15 02:56:32;;;;;;;15.50;1.70;;;;;;;;;;6134432;23;20055;-76
2023/03/15 02:58:58;;;;;;;13.50;1.70;;;;;;;;;;6134480;23;20053;-74
2023/03/15 03:01:23;;;;;;;16.92;2.00;;;;;;;;;;6133932;23;20002;-74
2023/03/15 03:03:49;;;;;;;15.75;2.15;;;;;;;;;;6133148;23;20018;-77
2023/03/15 03:06:16;;;;;;;15.30;1.92;;;;;;;;;;6134079;23;20057;-76
2023/03/15 03:08:45;;;;;;;10.23;1.60;;;;;;;;;;6133006;23;20029;-76
2023/03/15 03:11:12;;;;;;;15.95;2.08;;;;;;;;;;6133364;23;20002;-75
2023/03/15 03:13:37;;;;;;;15.27;1.90;;;;;;;;;;6133038;23;19997;-74
2023/03/15 03:16:02;;;;;;;8.75;1.42;;;;;;;;;;6134511;23;20009;-75
2023/03/15 03:18:29;;;;;;;18.60;2.05;;;;;;;;;;6134349;23;20013;-75
2023/03/15 03:20:56;;;;;;;15.77;2.25;;;;;;;;;;6134253;23;20229;-76
2023/03/15 03:23:24;;;;;;;13.50;1.83;;;;;;;;;;6132994;23;20002;-75
2023/03/15 03:25:52;;;;;;;11.85;1.58;;;;;;;;;;6133961;23;20285;-77
2023/03/15 03:28:18;;;;;;;10.77;1.92;;;;;;;;;;6134372;23;20002;-76
2023/03/15 03:30:44;;;;;;;13.05;1.70;;;;;;;;;;6133797;23;19998;-77
2023/03/15 03:33:09;;;;;;;13.18;2.00;;;;;;;;;;6132862;23;20010;-77
2023/03/15 03:35:35;;;;;;;11.32;1.88;;;;;;;;;;6106803;23;20012;-76
2023/03/15 03:38:00;;;;;;;9.95;1.58;;;;;;;;;;6132318;23;19990;-75
2023/03/15 03:40:25;;;;;;;13.23;1.88;;;;;;;;;;6132873;23;20009;-77
2023/03/15 03:42:51;;;;;;;12.50;1.98;;;;;;;;;;6133330;23;20070;-76
2023/03/15 03:45:16;;;;;;;12.27;1.58;;;;;;;;;;6133988;23;20022;-75
2023/03/15 03:47:41;;;;;;;9.50;1.77;;;;;;;;;;6134121;23;20172;-76
2023/03/15 03:50:09;;;;;;;13.25;2.03;;;;;;;;;;6133893;23;19994;-77
2023/03/15 03:52:35;;;;;;;17.52;2.33;;;;;;;;;;6133125;23;20352;-73
2023/03/15 03:55:00;;;;;;;12.98;1.40;;;;;;;;;;6133881;23;19997;-74
2023/03/15 03:57:26;;;;;;;13.38;1.45;;;;;;;;;;6133691;23;20002;-76
2023/03/15 03:59:51;;;;;;;12.55;1.50;;;;;;;;;;6133608;23;20061;-74
2023/03/15 04:02:17;;;;;;;13.93;2.10;;;;;;;;;;6133620;23;20230;-77
2023/03/15 04:04:42;;;;;;;10.50;1.55;;;;;;;;;;6132254;23;20028;-74
2023/03/15 04:07:07;;;;;;;9.68;1.50;;;;;;;;;;6133340;23;20006;-74
2023/03/15 04:09:36;;;;;;;15.82;1.90;;;;;;;;;;6132407;23;20034;-74
2023/03/15 04:12:02;;;;;;;14.75;1.60;;;;;;;;;;6132180;23;20021;-75
2023/03/15 04:14:27;;;;;;;11.07;1.75;;;;;;;;;;6132504;23;20005;-75
2023/03/15 04:16:53;;;;;;;19.70;2.35;;;;;;;;;;6134020;23;19998;-75
2023/03/15 04:19:19;;;;;;;14.95;1.85;;;;;;;;;;6132363;23;20006;-75
2023/03/15 04:21:46;;;;;;;15.95;1.80;;;;;;;;;;6133552;23;20323;-76
2023/03/15 04:24:13;;;;;;;12.77;1.83;;;;;;;;;;6132744;23;20005;-74
2023/03/15 04:26:38;;;;;;;16.27;1.60;;;;;;;;;;6132837;23;20302;-75
2023/03/15 04:29:04;;;;;;;14.80;1.83;;;;;;;;;;6132586;23;19994;-75
2023/03/15 04:31:36;;;;;;;13.60;2.35;;;;;;;;;;6132533;23;20002;-75
2023/03/15 04:34:03;;;;;;;13.27;1.67;;;;;;;;;;6133319;23;20006;-75
2023/03/15 04:36:28;;;;;;;13.73;1.75;;;;;;;;;;6133918;23;20070;-76
2023/03/15 04:39:04;;;;;;;15.48;1.85;;;;;;;;;;6133819;23;20002;-76
2023/03/15 04:41:30;;;;;;;15.77;1.70;;;;;;;;;;6133951;23;20001;-74
2023/03/15 04:43:55;;;;;;;15.82;1.80;;;;;;;;;;6133633;23;19998;-77
2023/03/15 04:46:20;;;;;;;18.45;2.08;;;;;;;;;;6133535;23;20041;-76
2023/03/15 04:48:46;;;;;;;17.23;1.90;;;;;;;;;;6132908;23;20228;-75
2023/03/15 04:51:11;;;;;;;9.77;2.08;;;;;;;;;;6135071;23;20340;-75
2023/03/15 04:53:39;;;;;;;11.60;1.75;;;;;;;;;;6135530;23;20001;-75
2023/03/15 04:56:05;;;;;;;12.20;1.65;;;;;;;;;;6134921;23;19998;-75
2023/03/15 04:58:31;;;;;;;12.70;1.77;;;;;;;;;;6134795;23;19998;-75
2023/03/15 05:00:56;;;;;;;15.65;2.00;;;;;;;;;;6134274;23;20048;-75
2023/03/15 05:03:22;;;;;;;13.77;1.63;;;;;;;;;;6135531;23;20049;-76
2023/03/15 05:05:47;;;;;;;12.93;1.70;;;;;;;;;;6109654;23;20001;-76
2023/03/15 05:08:12;;;;;;;13.80;2.05;;;;;;;;;;6135412;23;20290;-74
2023/03/15 05:10:38;;;;;;;13.30;1.80;;;;;;;;;;6135552;23;20021;-75
2023/03/15 05:13:04;;;;;;;11.57;1.77;;;;;;;;;;6135295;23;19993;-75
2023/03/15 05:15:29;;;;;;;15.10;2.28;;;;;;;;;;6135429;23;20065;-76
2023/03/15 05:17:54;;;;;;;12.40;1.67;;;;;;;;;;6135481;23;20026;-75
2023/03/15 05:20:20;;;;;;;8.75;1.40;;;;;;;;;;6135407;23;20295;-75
2023/03/15 05:22:46;;;;;;;10.20;1.33;;;;;;;;;;6135151;23;20004;-76
2023/03/15 05:25:12;;;;;;;10.25;1.63;;;;;;;;;;6134637;23;20009;-77
2023/03/15 05:27:38;;;;;;;13.30;1.67;;;;;;;;;;6133915;23;20017;-76
2023/03/15 05:30:05;;;;;;;7.88;1.35;;;;;;;;;;6133281;23;20006;-76
2023/03/15 05:32:33;;;;;;;11.85;1.70;;;;;;;;;;6135192;23;20009;-76
2023/03/15 05:35:01;;;;;;;10.88;1.23;;;;;;;;;;6135013;23;20240;-75
2023/03/15 05:37:26;;;;;;;11.55;1.52;;;;;;;;;;6135434;23;19998;-77
2023/03/15 05:39:52;;;;;;;11.23;1.52;;;;;;;;;;6134589;23;20062;-76
2023/03/15 05:42:24;;;;;;;10.48;1.50;;;;;;;;;;6109164;23;19998;-76
2023/03/15 05:44:49;;;;;;;10.25;1.50;;;;;;;;;;6134902;23;20029;-76
2023/03/15 05:47:15;;;;;;;12.07;2.15;;;;;;;;;;6109499;23;20021;-77
2023/03/15 05:49:40;;;;;;;12.93;1.95;;;;;;;;;;6134904;23;20009;-74
2023/03/15 05:52:06;;;;;;;17.35;2.45;;;;;;;;;;6135339;23;20005;-76
2023/03/15 05:54:31;;;;;;;14.27;2.42;;;;;;;;;;6134701;23;20002;-76
2023/03/15 05:56:56;;;;;;;14.65;2.22;;;;;;;;;;6134409;23;19994;-75
2023/03/15 05:59:22;;;;;;;14.55;2.35;;;;;;;;;;6134789;23;20049;-75
2023/03/15 06:01:47;;;;;;;14.32;2.15;;;;;;;;;;6135013;23;20009;-76
2023/03/15 06:04:13;;;;;;;10.98;1.80;;;;;;;;;;6134905;23;20041;-75
2023/03/15 06:06:38;;;;;;;12.57;2.25;;;;;;;;;;6134796;23;20065;-76
2023/03/15 06:09:04;;;;;;;9.35;1.88;;;;;;;;;;6134381;23;20002;-74
2023/03/15 06:11:29;;;;;;;12.70;1.80;;;;;;;;;;6134934;23;20002;-76
2023/03/15 06:13:54;;;;;;;10.75;1.90;;;;;;;;;;6134813;23;19994;-75
2023/03/15 06:16:20;;;;;;;9.35;1.80;;;;;;;;;;6134630;23;20036;-76
2023/03/15 06:18:45;;;;;;;8.68;2.13;;;;;;;;;;6134805;23;20029;-76
2023/03/15 06:21:11;;;;;;;13.95;2.30;;;;;;;;;;6134822;23;20002;-76
2023/03/15 06:23:36;;;;;;;11.18;2.13;;;;;;;;;;6134752;23;20005;-76
2023/03/15 06:26:01;;;;;;;9.05;1.75;;;;;;;;;;6134603;23;20305;-75
2023/03/15 06:28:27;;;;;;;12.05;1.73;;;;;;;;;;6134217;23;20053;-77
2023/03/15 06:30:52;;;;;;;6.97;1.58;;;;;;;;;;6133213;23;20210;-74
2023/03/15 06:33:18;;;;;;;10.30;1.50;;;;;;;;;;6133002;23;20034;-75
2023/03/15 06:35:45;;;;;;;10.75;1.67;;;;;;;;;;6132753;23;20027;-76
2023/03/15 06:38:12;;;;;;;9.65;1.90;;;;;;;;;;6133605;23;20089;-76
2023/03/15 06:40:38;;;;;;;10.90;2.28;;;;;;;;;;6132902;23;19994;-76
2023/03/15 06:43:05;;;;;;;11.05;2.00;;;;;;;;;;6133096;23;20144;-76
2023/03/15 06:45:31;;;;;;;17.90;2.20;;;;;;;;;;6133129;23;20002;-76
2023/03/15 06:47:56;;;;;;;8.95;1.70;;;;;;;;;;6107470;23;19994;-76
2023/03/15 06:50:22;;;;;;;12.80;2.00;;;;;;;;;;6134092;23;20002;-76
2023/03/15 06:52:47;;;;;;;11.55;1.80;;;;;;;;;;6133120;23;20021;-76
2023/03/15 06:55:16;;;;;;;14.40;2.28;;;;;;;;;;6134685;23;20005;-77
2023/03/15 06:57:42;;;;;;;9.90;2.10;;;;;;;;;;6133778;23;20001;-77
2023/03/15 07:00:10;;;;;;;11.45;1.90;;;;;;;;;;6133451;23;20037;-74
2023/03/15 07:02:36;;;;;;;8.23;1.67;;;;;;;;;;6133681;23;20009;-76
2023/03/15 07:05:05;;;;;;;12.93;2.08;;;;;;;;;;6133809;23;20348;-76
2023/03/15 07:07:30;;;;;;;8.43;1.55;;;;;;;;;;6133587;23;20029;-76
2023/03/15 07:09:56;;;;;;;9.90;1.83;;;;;;;;;;6132714;23;20293;-76
2023/03/15 07:12:21;;;;;;;7.63;1.45;;;;;;;;;;6132749;23;20364;-76
2023/03/15 07:14:46;;;;;;;14.68;1.70;;;;;;;;;;6132671;23;20049;-74
2023/03/15 07:17:12;;;;;;;7.00;1.33;;;;;;;;;;6133438;23;20214;-77
2023/03/15 07:19:37;;;;;;;11.88;1.40;;;;;;;;;;6133381;23;20325;-76
2023/03/15 07:22:03;;;;;;;10.50;1.25;;;;;;;;;;6134140;23;20002;-76
2023/03/15 07:24:29;;;;;;;8.77;1.50;;;;;;;;;;6133005;23;20022;-77
2023/03/15 07:26:55;;;;;;;11.35;1.80;;;;;;;;;;6133075;23;20057;-76
2023/03/15 07:29:22;;;;;;;8.90;1.60;;;;;;;;;;6132525;23;20002;-76
2023/03/15 07:31:48;;;;;;;8.38;1.63;;;;;;;;;;6133145;23;20005;-75
2023/03/15 07:34:13;;;;;;;8.63;1.55;;;;;;;;;;6133545;23;19998;-76
2023/03/15 07:36:38;;;;;;;8.43;1.50;;;;;;;;;;6133866;23;20010;-76
2023/03/15 07:39:04;;;;;;;8.52;1.17;;;;;;;;;;6124528;23;20522;-77
2023/03/15 07:41:30;;;;;;;12.48;1.50;;;;;;;;;;6123066;23;20016;-73
2023/03/15 07:43:55;;;;;;;8.40;1.70;;;;;;;;;;6123369;23;20367;-75
2023/03/15 07:46:21;;;;;;;12.45;1.92;;;;;;;;;;6122604;23;20009;-77
2023/03/15 07:48:46;;;;;;;5.60;1.25;;;;;;;;;;6123173;23;20503;-76
2023/03/15 07:51:12;;;;;;;10.35;1.50;;;;;;;;;;6122877;23;20067;-76
2023/03/15 07:53:37;;;;;;;13.13;2.10;;;;;;;;;;6123208;23;20514;-78
2023/03/15 07:56:03;;;;;;;11.13;1.63;;;;;;;;;;6122897;23;20076;-77
2023/03/15 07:58:29;;;;;;;16.75;1.73;;;;;;;;;;6122766;23;20002;-73
2023/03/15 08:00:55;;;;;;;10.20;1.50;;;;;;;;;;6122744;23;20013;-76
2023/03/15 08:03:22;;;;;;;9.38;1.63;;;;;;;;;;6122964;23;20044;-75
2023/03/15 08:05:48;;;;;;;13.27;1.60;;;;;;;;;;6122456;23;20002;-76
2023/03/15 08:08:13;;;;;;;7.55;1.38;;;;;;;;;;6123338;23;20061;-71
2023/03/15 08:10:39;;;;;;;11.32;2.03;;;;;;;;;;6126721;23;20473;-81
2023/03/15 08:13:05;;;;;;;7.07;1.33;;;;;;;;;;6126405;23;20002;-75
2023/03/15 08:15:30;;;;;;;10.15;1.85;;;;;;;;;;6124535;23;20046;-75
2023/03/15 08:17:55;;;;;;;10.20;1.80;;;;;;;;;;6125455;23;20018;-74
2023/03/15 08:20:21;;;;;;;9.45;1.30;;;;;;;;;;6123747;23;20320;-75
2023/03/15 08:22:48;;;;;;;13.68;1.77;;;;;;;;;;6125569;23;20097;-74
2023/03/15 08:25:16;;;;;;;8.00;1.25;;;;;;;;;;6124634;23;20010;-75
2023/03/15 08:27:41;;;;;;;5.25;1.23;;;;;;;;;;6126936;23;20013;-74
2023/03/15 08:30:11;;;;;;;8.15;1.45;;;;;;;;;;6124352;23;20006;-74
2023/03/15 08:32:38;;;;;;;10.87;1.50;;;;;;;;;;6122981;23;20350;-74
2023/03/15 08:35:05;;;;;;;9.38;1.33;;;;;;;;;;6124259;23;20008;-74
2023/03/15 08:37:30;;;;;;;8.27;1.35;;;;;;;;;;6126084;23;20450;-74
2023/03/15 08:39:59;;;;;;;8.55;1.63;;;;;;;;;;6128736;23;20001;-73
2023/03/15 08:42:28;;;;;;;11.23;1.58;;;;;;;;;;6124454;23;20057;-76
2023/03/15 08:44:58;;;;;;;7.05;1.60;;;;;;;;;;6097322;23;20009;-73
2023/03/15 08:47:23;;;;;;;7.83;1.60;;;;;;;;;;6124024;23;20002;-74
2023/03/15 08:49:51;;;;;;;9.23;1.50;;;;;;;;;;6123653;23;20006;-74
2023/03/15 08:52:18;;;;;;;5.55;1.20;;;;;;;;;;6124535;23;20002;-74
2023/03/15 08:54:43;;;;;;;7.50;1.50;;;;;;;;;;6122725;23;20077;-74
2023/03/15 08:57:09;;;;;;;8.18;1.40;;;;;;;;;;6122201;23;20088;-75
2023/03/15 08:59:34;;;;;;;6.38;1.02;;;;;;;;;;6122302;23;20347;-75
2023/03/15 09:02:00;;;;;;;9.25;1.40;;;;;;;;;;6095000;23;20327;-74
2023/03/15 09:04:25;;;;;;;7.60;1.38;;;;;;;;;;6122845;23;20049;-75
2023/03/15 09:06:50;;;;;;;8.18;1.30;;;;;;;;;;6122341;23;20006;-75
2023/03/15 09:09:16;;;;;;;6.75;1.30;;;;;;;;;;6123949;23;20064;-74
2023/03/15 09:11:42;;;;;;;8.30;1.08;;;;;;;;;;6124288;23;20350;-74
2023/03/15 09:14:07;;;;;;;7.68;1.42;;;;;;;;;;6124559;23;20009;-74
2023/03/15 09:16:33;;;;;;;6.00;1.10;;;;;;;;;;6124029;23;20002;-74
2023/03/15 09:18:58;;;;;;;5.88;0.98;;;;;;;;;;6124587;23;20013;-74
2023/03/15 09:21:24;;;;;;;5.70;1.13;;;;;;;;;;6124420;23;20351;-74
2023/03/15 09:23:49;;;;;;;8.80;1.35;;;;;;;;;;6124673;23;20036;-74
2023/03/15 09:26:15;;;;;;;6.13;1.27;;;;;;;;;;6123525;23;20009;-74
2023/03/15 09:28:40;;;;;;;12.82;1.50;;;;;;;;;;6123287;23;20002;-75
2023/03/15 09:31:06;;;;;;;5.40;1.08;;;;;;;;;;6124016;23;20018;-75
2023/03/15 09:33:32;;;;;;;5.63;1.00;;;;;;;;;;6124401;23;20098;-74
2023/03/15 09:35:58;;;;;;;4.82;0.82;;;;;;;;;;6124033;23;20339;-73
2023/03/15 09:38:23;;;;;;;5.70;1.05;;;;;;;;;;6124488;23;20002;-73
2023/03/15 09:40:49;;;;;;;5.03;1.25;;;;;;;;;;6124298;23;20002;-74
2023/03/15 09:43:50;;;;;;;5.75;1.00;;;;;;;;;;6124206;23;20394;-74
2023/03/15 09:46:26;;;;;;;5.53;1.20;;;;;;;;;;6116454;23;20013;-74
2023/03/15 09:49:08;;;;;;;4.28;0.88;;;;;;;;;;6124243;23;20002;-74
2023/03/15 09:51:37;;;;;;;4.57;0.95;;;;;;;;;;6123911;23;20503;-73
2023/03/15 09:54:25;;;;;;;3.88;1.05;;;;;;;;;;6124328;23;20002;-73
2023/03/15 09:56:58;;;;;;;6.65;1.00;;;;;;;;;;6122958;23;20006;-74
2023/03/15 09:59:45;;;;;;;6.22;1.10;;;;;;;;;;6124393;23;20022;-74
2023/03/15 10:02:22;;;;;;;6.05;1.08;;;;;;;;;;6123903;23;20013;-74
2023/03/15 10:04:51;;;;;;;5.25;0.93;;;;;;;;;;6124088;23;20006;-74
2023/03/15 10:07:17;;;;;;;5.57;1.00;;;;;;;;;;6123679;23;20183;-74
2023/03/15 10:09:44;;;;;;;5.28;1.13;;;;;;;;;;6124108;23;20009;-74
2023/03/15 10:12:29;;;;;;;6.47;0.95;;;;;;;;;;6097714;23;20331;-75
2023/03/15 10:15:40;;;;;;;4.88;1.10;;;;;;;;;;6124240;23;20002;-75
2023/03/15 10:18:30;;;;;;;5.03;1.00;;;;;;;;;;6123400;23;20316;-74
2023/03/15 10:21:04;;;;;;;5.13;0.80;;;;;;;;;;6124030;23;20388;-75
2023/03/15 10:23:38;;;;;;;4.63;1.10;;;;;;;;;;6097654;23;20006;-75
2023/03/15 10:26:11;;;;;;;4.78;0.90;;;;;;;;;;6123948;23;20010;-75
2023/03/15 10:28:37;;;;;;;6.03;0.90;;;;;;;;;;6123598;23;20009;-74
2023/03/15 10:31:15;;;;;;;6.45;1.00;;;;;;;;;;6124110;23;20010;-74
2023/03/15 10:33:42;;;;;;;7.50;0.82;;;;;;;;;;6123859;23;20088;-75
2023/03/15 10:36:18;;;;;;;8.32;1.30;;;;;;;;;;6124058;23;20077;-74
2023/03/15 10:38:44;;;;;;;5.55;1.02;;;;;;;;;;6097487;23;20027;-74
2023/03/15 10:41:25;;;;;;;7.88;1.20;;;;;;;;;;6123972;23;20021;-74
2023/03/15 10:44:06;;;;;;;5.10;1.40;;;;;;;;;;6123474;23;20395;-74
2023/03/15 10:46:32;;;;;;;5.25;1.40;;;;;;;;;;6123232;23;20040;-74
2023/03/15 10:49:13;;;;;;;6.15;1.33;;;;;;;;;;6123418;23;20438;-74
2023/03/15 10:51:45;;;;;;;6.00;1.30;;;;;;;;;;6123828;23;20040;-74
2023/03/15 10:54:18;;;;;;;7.88;1.75;;;;;;;;;;6123721;23;20435;-75
2023/03/15 10:57:04;;;;;;;6.22;1.35;;;;;;;;;;6123296;23;20496;-74
2023/03/15 10:59:32;;;;;;;5.32;1.20;;;;;;;;;;6123560;23;20010;-74
2023/03/15 11:02:10;;;;;;;7.38;1.20;;;;;;;;;;6123246;23;20010;-73
2023/03/15 11:04:40;;;;;;;5.57;1.30;;;;;;;;;;6123525;23;20002;-73
2023/03/15 11:07:06;;;;;;;8.23;1.20;;;;;;;;;;6097432;23;20022;-73
2023/03/15 11:09:43;;;;;;;8.73;1.45;;;;;;;;;;6123884;23;20387;-74
2023/03/15 11:12:14;;;;;;;5.97;1.33;;;;;;;;;;6123200;23;20049;-73
2023/03/15 11:14:43;;;;;;;4.60;0.98;;;;;;;;;;6123727;23;20006;-74
2023/03/15 11:17:42;;;;;;;4.88;1.10;;;;;;;;;;6122718;23;20006;-74
2023/03/15 11:20:25;;;;;;;7.45;1.63;;;;;;;;;;6096317;23;20018;-74
2023/03/15 11:22:52;;;;;;;8.88;1.40;;;;;;;;;;6123190;23;20089;-74
2023/03/15 11:25:32;;;;;;;5.72;1.10;;;;;;;;;;6123690;23;20002;-72
2023/03/15 11:27:58;;;;;;;8.00;1.40;;;;;;;;;;6122939;23;20343;-74
2023/03/15 11:30:28;;;;;;;6.45;1.10;;;;;;;;;;6123484;23;20332;-74
2023/03/15 11:32:54;;;;;;;4.95;0.88;;;;;;;;;;6097292;23;20006;-74
2023/03/15 11:35:32;;;;;;;4.90;1.35;;;;;;;;;;6123400;23;20431;-74
2023/03/15 11:38:04;;;;;;;4.93;1.00;;;;;;;;;;6122629;23;20001;-75
2023/03/15 11:40:37;;;;;;;4.45;0.90;;;;;;;;;;6123206;23;20106;-75
2023/03/15 11:43:07;;;;;;;8.32;1.20;;;;;;;;;;6122823;23;20006;-74
2023/03/15 11:45:54;;;;;;;8.20;1.15;;;;;;;;;;6123433;23;20006;-75
2023/03/15 11:48:30;;;;;;;4.25;0.88;;;;;;;;;;6096718;23;20010;-75
2023/03/15 11:50:57;;;;;;;4.07;0.90;;;;;;;;;;6123276;23;20002;-75
2023/03/15 11:53:29;;;;;;;4.85;0.98;;;;;;;;;;6122856;23;20030;-75
2023/03/15 11:55:57;;;;;;;2.67;0.82;;;;;;;;;;6123169;23;20005;-75
2023/03/15 11:58:32;;;;;;;2.40;0.75;;;;;;;;;;6122600;23;20005;-75
2023/03/15 12:01:02;;;;;;;5.47;0.98;;;;;;;;;;6122955;23;20144;-75
2023/03/15 12:03:34;;;;;;;3.58;0.90;;;;;;;;;;6122983;23;20094;-74
2023/03/15 12:06:04;;;;;;;5.45;1.00;;;;;;;;;;6123276;23;20002;-75
2023/03/15 12:08:35;;;;;;;2.67;0.60;;;;;;;;;;6122946;23;20061;-74
2023/03/15 12:11:01;;;;;;;5.63;1.00;;;;;;;;;;6123054;23;20029;-74
2023/03/15 12:13:29;;;;;;;2.42;0.73;;;;;;;;;;6122652;23;20002;-73
2023/03/15 12:15:55;;;;;;;3.55;0.70;;;;;;;;;;6097041;23;20085;-74
2023/03/15 12:18:44;;;;;;;2.75;0.93;;;;;;;;;;6122646;23;20001;-73
2023/03/15 12:21:30;;;;;;;4.30;1.00;;;;;;;;;;6122301;23;20103;-74
2023/03/15 12:24:05;;;;;;;3.83;0.82;;;;;;;;;;6122717;23;20081;-74
2023/03/15 12:26:43;;;;;;;2.65;0.85;;;;;;;;;;6122810;23;20338;-73
2023/03/15 12:29:17;;;;;;;2.55;0.75;;;;;;;;;;6122173;23;20002;-74
2023/03/15 12:32:02;;;;;;;4.10;0.80;;;;;;;;;;6122874;23;20002;-74
2023/03/15 12:34:48;;;;;;;2.15;0.77;;;;;;;;;;6122152;23;20022;-74
2023/03/15 12:37:37;;;;;;;6.13;1.00;;;;;;;;;;6122991;23;20028;-75
2023/03/15 12:40:15;;;;;;;1.88;0.68;;;;;;;;;;6122733;23;20010;-74
2023/03/15 12:42:40;;;;;;;5.47;0.80;;;;;;;;;;6096728;23;20017;-73
2023/03/15 12:45:15;;;;;;;2.50;0.85;;;;;;;;;;6122487;23;20002;-74
2023/03/15 12:47:46;;;;;;;3.97;0.90;;;;;;;;;;6096976;23;20012;-73
2023/03/15 12:50:40;;;;;;;3.28;0.90;;;;;;;;;;6122656;23;20041;-73
2023/03/15 12:53:14;;;;;;;2.17;0.80;;;;;;;;;;6122860;23;20010;-73
2023/03/15 12:55:39;;;;;;;3.17;0.80;;;;;;;;;;6123245;23;20013;-75
2023/03/15 12:58:10;;;;;;;4.50;0.77;;;;;;;;;;6122199;23;19997;-74
2023/03/15 13:00:36;;;;;;;;;;;;;;;;;;6123024;23;20061;-73
2023/03/15 13:03:10;;;;;;;1.75;0.60;;;;;;;;;;6122575;23;19908;-74
2023/03/15 13:06:18;;;;;;;2.63;0.60;;;;;;;;;;6122498;23;20041;-74
2023/03/15 13:08:59;;;;;;;4.10;0.70;;;;;;;;;;6122469;23;20405;-74
2023/03/15 13:11:46;;;;;;;3.67;0.80;;;;;;;;;;6124741;23;20006;-74
2023/03/15 13:14:49;;;;;;;1.95;0.60;;;;;;;;;;6124448;23;20013;-74
2023/03/15 13:17:39;;;;;;;3.50;1.00;;;;;;;;;;6124555;23;20081;-74
2023/03/15 13:20:25;;;;;;;3.92;0.80;;;;;;;;;;6124253;23;20507;-74
2023/03/15 13:23:01;;;;;;;3.90;0.70;;;;;;;;;;6098330;23;20531;-74
2023/03/15 13:26:01;;;;;;;2.08;0.57;;;;;;;;;;6124319;23;20081;-73
2023/03/15 13:28:48;;;;;;;2.63;0.52;;;;;;;;;;6124028;23;20431;-74
2023/03/15 13:31:22;;;;;;;2.40;0.70;;;;;;;;;;6124201;23;20396;-74
2023/03/15 13:33:49;;;;;;;2.67;0.60;;;;;;;;;;6123923;23;20009;-75
2023/03/15 13:36:19;;;;;;;2.25;0.70;;;;;;;;;;6124572;23;20554;-75
2023/03/15 13:38:46;;;;;;;1.95;0.50;;;;;;;;;;6124199;23;20018;-75
2023/03/15 13:41:25;;;;;;;2.20;0.70;;;;;;;;;;6124254;23;20442;-74
2023/03/15 13:43:53;;;;;;;3.58;0.60;;;;;;;;;;6124010;23;20010;-75
2023/03/15 13:46:24;;;;;;;5.00;0.88;;;;;;;;;;6124621;23;20002;-75
2023/03/15 13:48:52;;;;;;;3.28;0.75;;;;;;;;;;6124080;23;20002;-75
2023/03/15 13:51:30;;;;;;;3.85;0.70;;;;;;;;;;6124408;23;20041;-75
2023/03/15 13:54:02;;;;;;;2.38;0.65;;;;;;;;;;6123952;23;20025;-75
2023/03/15 13:56:54;;;;;;;4.03;0.80;;;;;;;;;;6123923;23;20077;-75
2023/03/15 13:59:22;;;;;;;2.28;0.50;;;;;;;;;;6097310;23;20498;-74
2023/03/15 14:01:52;;;;;;;2.05;0.60;;;;;;;;;;6124104;23;20014;-74
2023/03/15 14:04:19;;;;;;;3.58;0.80;;;;;;;;;;6124127;23;20053;-74
2023/03/15 14:06:45;;;;;;;2.80;0.60;;;;;;;;;;6124240;23;20025;-74
2023/03/15 14:09:22;;;;;;;3.47;0.75;;;;;;;;;;6123781;23;20010;-73
2023/03/15 14:12:05;;;;;;;2.65;0.70;;;;;;;;;;6124022;23;20009;-74
2023/03/15 14:14:36;;;;;;;1.45;0.50;;;;;;;;;;6123831;23;20002;-74
2023/03/15 14:17:16;;;;;;;1.75;0.70;;;;;;;;;;6124134;23;20002;-75
2023/03/15 14:19:54;;;;;;;2.50;0.60;;;;;;;;;;6123567;23;20002;-74
2023/03/15 14:22:20;;;;;;;1.88;0.50;;;;;;;;;;6123372;23;20250;-75
2023/03/15 14:24:49;;;;;;;1.92;0.50;;;;;;;;;;6123864;23;20012;-74
2023/03/15 14:27:22;;;;;;;2.15;0.50;;;;;;;;;;6123879;23;20002;-75
2023/03/15 14:29:53;;;;;;;3.22;0.70;;;;;;;;;;6123554;23;20006;-75
2023/03/15 14:32:34;;;;;;;1.83;0.50;;;;;;;;;;6123863;23;20077;-75
2023/03/15 14:35:23;;;;;;;4.15;0.60;;;;;;;;;;6123878;23;20006;-75
2023/03/15 14:38:01;;;;;;;1.48;0.50;;;;;;;;;;6123964;23;20366;-75
2023/03/15 14:40:36;;;;;;;4.13;0.50;;;;;;;;;;6123513;23;20081;-75
2023/03/15 14:43:03;;;;;;;1.58;0.40;;;;;;;;;;6123512;23;20006;-75
2023/03/15 14:45:33;;;;;;;2.15;0.50;;;;;;;;;;6123490;23;20447;-75
2023/03/15 14:48:05;;;;;;;5.80;0.43;;;;;;;;;;6124139;23;20006;-75
2023/03/15 14:50:37;;;;;;;1.55;0.50;;;;;;;;;;6123380;23;20010;-75